Аэропорт: Саратов-Центральный. Саратов

ICAO: UWSS

METAR:
2018/05/20 19:00
UWSS 201900Z VRB01MPS 9999 OVC050CB 17/15 Q1015 R12/290255 NOSIG RMK QFE749
METAR:
2016/08/14 06:12
TAF TAF UWSS 140500Z 1406/1418 03003MPS 9999 SCT040CB 
      TEMPO 1406/1418 VRB18MPS 2100 -TSRAGR SQ BKN007 BKN030CB